Time;durP1;ratioP1;P1;durP2;ratioP2;P2;SDS_P1;SDS_P2;PMS_P1;PMS_P2;Temp;Humidity;BMP_temperature;BMP_pressure;BME280_temperature;BME280_humidity;BME280_pressure;Samples;Min_cycle;Max_cycle;Signal;HPM_P1;HPM_P2
2021/12/01 00:00:47;;;;;;;14.75;8.60;;;3.40;81.30;;;-151.14;100.00;62537.16;4034698;33;20030;-83
2021/12/01 00:03:13;;;;;;;11.68;8.02;;;3.40;81.20;;;-151.14;100.00;62537.16;4010199;33;20282;-84
2021/12/01 00:05:40;;;;;;;13.18;8.10;;;3.40;81.30;;;-151.14;100.00;62537.16;4011821;33;20353;-84
2021/12/01 00:08:06;;;;;;;11.85;7.82;;;3.40;81.30;;;-151.14;100.00;62537.16;4034633;33;19999;-84
2021/12/01 00:10:37;;;;;;;10.77;7.65;;;3.40;81.40;;;-151.14;100.00;62537.16;4033971;33;20302;-84
2021/12/01 00:13:06;;;;;;;12.23;8.35;;;3.40;81.50;;;-151.14;100.00;62537.16;4053644;33;20267;-84
2021/12/01 00:15:33;;;;;;;12.73;8.10;;;3.40;81.40;;;-151.14;100.00;62537.16;4031335;33;20210;-84
2021/12/01 00:18:02;;;;;;;12.82;7.70;;;3.40;81.40;;;-151.14;100.00;62537.16;4000932;33;20262;-84
2021/12/01 00:20:29;;;;;;;11.93;8.07;;;3.40;81.40;;;-151.14;100.00;62537.16;3998449;33;20515;-83
2021/12/01 00:22:59;;;;;;;12.85;7.82;;;3.40;81.50;;;-151.14;100.00;62537.16;3998281;33;20273;-84
2021/12/01 00:25:32;;;;;;;11.20;7.18;;;3.40;82.30;;;-151.14;100.00;62537.16;3973792;34;20292;-84
2021/12/01 00:27:59;;;;;;;12.52;7.55;;;3.40;81.40;;;-151.14;100.00;62537.16;3969282;34;20303;-84
2021/12/01 00:30:26;;;;;;;11.23;7.67;;;3.40;81.30;;;-151.14;100.00;62537.16;3951116;34;20073;-83
2021/12/01 00:32:57;;;;;;;11.43;7.57;;;3.40;81.40;;;-151.14;100.00;62537.16;3924962;34;20126;-84
2021/12/01 00:35:27;;;;;;;10.60;7.07;;;3.40;81.50;;;-151.14;100.00;62537.16;3980224;34;20548;-83
2021/12/01 00:37:54;;;;;;;10.10;7.07;;;3.40;81.40;;;-151.14;100.00;62537.16;3975968;34;20307;-84
2021/12/01 00:40:21;;;;;;;9.85;6.90;;;3.40;81.50;;;-151.14;100.00;62537.16;3954959;34;20321;-84
2021/12/01 00:42:51;;;;;;;11.03;7.43;;;3.40;82.20;;;-151.14;100.00;62537.16;3956730;34;20358;-84
2021/12/01 00:45:22;;;;;;;10.45;6.93;;;3.40;81.50;;;-151.14;100.00;62537.16;4003027;34;20192;-84
2021/12/01 00:47:50;;;;;;;12.15;7.35;;;3.40;81.30;;;-151.14;100.00;62537.16;3980547;34;20300;-83
2021/12/01 00:50:30;;;;;;;11.25;7.30;;;3.40;81.40;;;-151.14;100.00;62537.16;3959917;34;20086;-84
2021/12/01 00:53:01;;;;;;;11.27;7.50;;;3.40;81.50;;;-151.14;100.00;62537.16;4005402;34;20292;-83
2021/12/01 00:55:31;;;;;;;9.45;7.00;;;3.40;81.40;;;-151.14;100.00;62537.16;3985073;34;20311;-84
2021/12/01 00:57:58;;;;;;;9.70;6.95;;;3.40;81.40;;;-151.14;100.00;62537.16;3933461;34;20304;-84
2021/12/01 01:00:27;;;;;;;11.70;7.15;;;3.40;81.40;;;-151.14;100.00;62537.16;3954710;34;20327;-83
2021/12/01 01:02:58;;;;;;;9.95;6.57;;;3.40;81.50;;;-151.14;100.00;62537.16;3974481;34;20287;-83
2021/12/01 01:05:26;;;;;;;10.40;6.90;;;3.40;81.40;;;-151.14;100.00;62537.16;4013359;33;20289;-83
2021/12/01 01:07:53;;;;;;;9.70;7.15;;;3.40;81.40;;;-151.14;100.00;62537.16;4025846;33;20056;-82
2021/12/01 01:18:47;;;;;;;10.23;6.45;;;3.40;81.40;;;-151.14;100.00;62537.16;4041241;34;20289;-84
2021/12/01 01:21:13;;;;;;;12.27;7.07;;;3.40;81.50;;;-151.14;100.00;62537.16;4013166;34;20267;-83
2021/12/01 01:23:40;;;;;;;11.15;6.97;;;3.30;81.40;;;-151.14;100.00;62537.16;4012901;34;20641;-83
2021/12/01 01:26:09;;;;;;;10.23;6.97;;;3.40;81.30;;;-151.14;100.00;62537.16;4041910;33;19997;-82
2021/12/01 01:28:36;;;;;;;9.73;6.82;;;3.40;81.50;;;-151.14;100.00;62537.16;4004020;33;20297;-82
2021/12/01 01:31:02;;;;;;;9.70;7.13;;;3.40;81.50;;;-151.14;100.00;62537.16;3999579;33;19987;-82
2021/12/01 01:33:29;;;;;;;9.73;6.57;;;3.40;81.50;;;-151.14;100.00;62537.16;4020976;33;20307;-82
2021/12/01 01:35:55;;;;;;;10.68;6.60;;;3.40;81.40;;;-151.14;100.00;62537.16;4025256;33;20638;-82
2021/12/01 01:38:22;;;;;;;10.25;6.97;;;3.30;81.40;;;-151.14;100.00;62537.16;4034154;33;20318;-83
2021/12/01 01:40:48;;;;;;;10.93;7.38;;;3.40;81.40;;;-151.14;100.00;62537.16;4014737;33;20317;-82
2021/12/01 01:43:15;;;;;;;9.52;6.43;;;3.40;81.30;;;-151.14;100.00;62537.16;4011899;33;20007;-85
2021/12/01 01:45:41;;;;;;;12.00;8.07;;;3.40;81.40;;;-151.14;100.00;62537.16;4015094;33;20277;-83
2021/12/01 01:48:13;;;;;;;11.77;8.02;;;3.40;81.40;;;-151.14;100.00;62537.16;3989129;33;20284;-83
2021/12/01 01:50:43;;;;;;;11.57;7.30;;;3.40;81.30;;;-151.14;100.00;62537.16;4010292;33;20234;-83
2021/12/01 01:53:14;;;;;;;13.57;7.90;;;3.40;81.40;;;-151.14;100.00;62537.16;4016954;33;20289;-83
2021/12/01 01:55:49;;;;;;;11.70;7.57;;;3.40;81.30;;;-151.14;100.00;62537.16;4022635;33;20298;-82
2021/12/01 01:58:16;;;;;;;10.73;7.10;;;3.40;81.30;;;-151.14;100.00;62537.16;4021688;33;20286;-83
2021/12/01 02:00:52;;;;;;;11.05;7.20;;;3.40;81.40;;;-151.14;100.00;62537.16;4000417;33;20192;-83
2021/12/01 02:03:23;;;;;;;12.00;6.90;;;3.40;81.40;;;-151.14;100.00;62537.16;4033138;33;20336;-83
2021/12/01 02:05:50;;;;;;;12.50;7.57;;;3.40;81.30;;;-151.14;100.00;62537.16;4004845;33;20007;-83
2021/12/01 02:08:20;;;;;;;11.98;7.65;;;3.40;81.40;;;-151.14;100.00;62537.16;4046056;33;20310;-83
2021/12/01 02:10:50;;;;;;;11.70;7.07;;;3.40;81.30;;;-151.14;100.00;62537.16;4008929;33;20294;-83
2021/12/01 02:13:18;;;;;;;12.07;7.22;;;3.40;81.30;;;-151.14;100.00;62537.16;4045514;33;19998;-82
2021/12/01 02:15:45;;;;;;;11.48;7.15;;;3.40;81.30;;;-151.14;100.00;62537.16;3972404;33;20374;-82
2021/12/01 02:18:12;;;;;;;11.27;7.03;;;3.40;81.20;;;-151.14;100.00;62537.16;4001725;33;20295;-83
2021/12/01 02:20:40;;;;;;;12.50;7.13;;;3.40;81.40;;;-151.14;100.00;62537.16;4001526;33;20316;-83
2021/12/01 02:23:07;;;;;;;10.45;7.22;;;3.40;81.40;;;-151.14;100.00;62537.16;3995244;33;20133;-81
2021/12/01 02:25:33;;;;;;;11.05;7.03;;;3.40;81.30;;;-151.14;100.00;62537.16;4049333;33;20306;-83
2021/12/01 02:27:59;;;;;;;10.85;6.88;;;3.40;81.20;;;-151.14;100.00;62537.16;4059670;33;20002;-83
2021/12/01 02:30:26;;;;;;;10.27;6.22;;;3.40;81.10;;;-151.14;100.00;62537.16;4021489;33;20293;-83
2021/12/01 02:32:55;;;;;;;9.23;6.30;;;3.40;81.10;;;-151.14;100.00;62537.16;4044894;33;20272;-82
2021/12/01 02:35:21;;;;;;;8.70;5.93;;;3.30;81.20;;;-151.14;100.00;62537.16;4082336;33;20281;-84
2021/12/01 02:37:47;;;;;;;8.90;5.93;;;3.40;81.10;;;-151.14;100.00;62537.16;4067689;33;20290;-83
2021/12/01 02:40:14;;;;;;;10.07;6.05;;;3.40;81.10;;;-151.14;100.00;62537.16;4055342;33;20520;-83
2021/12/01 02:42:40;;;;;;;8.25;5.78;;;3.40;81.10;;;-151.14;100.00;62537.16;4030537;33;20375;-83
2021/12/01 02:45:07;;;;;;;8.73;5.50;;;3.30;81.10;;;-151.14;100.00;62537.16;4001546;33;20003;-83
2021/12/01 02:47:33;;;;;;;9.18;5.78;;;3.40;81.00;;;-151.14;100.00;62537.16;4041235;33;20303;-83
2021/12/01 02:50:00;;;;;;;8.75;5.93;;;3.30;81.00;;;-151.14;100.00;62537.16;4078271;33;20239;-83
2021/12/01 02:52:27;;;;;;;8.13;6.10;;;3.30;81.20;;;-151.14;100.00;62537.16;4048581;33;20310;-83
2021/12/01 02:54:53;;;;;;;7.88;5.05;;;3.40;81.00;;;-151.14;100.00;62537.16;4026361;33;20019;-83
2021/12/01 02:57:20;;;;;;;8.55;4.97;;;3.30;81.00;;;-151.14;100.00;62537.16;4043450;33;20303;-84
2021/12/01 02:59:46;;;;;;;7.68;4.90;;;3.30;81.00;;;-151.14;100.00;62537.16;4021847;33;20311;-83
2021/12/01 03:02:13;;;;;;;7.05;4.70;;;3.30;81.00;;;-151.14;100.00;62537.16;4046340;33;20007;-83
2021/12/01 03:04:42;;;;;;;9.40;5.00;;;3.30;81.10;;;-151.14;100.00;62537.16;3985359;33;20378;-83
2021/12/01 03:07:09;;;;;;;6.50;4.55;;;3.40;80.90;;;-151.14;100.00;62537.16;4009494;33;20010;-82
2021/12/01 03:09:36;;;;;;;8.25;4.93;;;3.30;81.00;;;-151.14;100.00;62537.16;4007427;33;20288;-82
2021/12/01 03:12:12;;;;;;;7.35;4.57;;;3.30;80.90;;;-151.14;100.00;62537.16;4031638;33;20313;-83
2021/12/01 03:14:38;;;;;;;6.18;4.47;;;3.30;81.00;;;-151.14;100.00;62537.16;4036112;33;20313;-83
2021/12/01 03:17:05;;;;;;;6.95;4.47;;;3.30;81.10;;;-151.14;100.00;62537.16;4015867;33;20281;-83
2021/12/01 03:19:41;;;;;;;6.97;4.03;;;3.30;81.00;;;-151.14;100.00;62537.16;3997407;33;20281;-83
2021/12/01 03:22:13;;;;;;;6.15;3.75;;;3.30;81.00;;;-151.14;100.00;62537.16;4020919;33;20009;-83
2021/12/01 03:24:40;;;;;;;5.70;3.65;;;3.30;81.00;;;-151.14;100.00;62537.16;3984422;33;19999;-83
2021/12/01 03:27:12;;;;;;;5.50;3.80;;;3.30;81.00;;;-151.14;100.00;62537.16;4005410;33;20286;-83
2021/12/01 03:29:41;;;;;;;6.45;3.88;;;3.30;81.10;;;-151.14;100.00;62537.16;4064821;33;20089;-84
2021/12/01 03:32:11;;;;;;;5.40;3.33;;;3.30;81.10;;;-151.14;100.00;62537.16;4024410;33;20086;-84
2021/12/01 03:35:07;;;;;;;5.25;3.20;;;3.30;81.00;;;-151.14;100.00;62537.16;4017075;33;20287;-83
2021/12/01 03:37:34;;;;;;;5.63;3.13;;;3.30;81.00;;;-151.14;100.00;62537.16;4018182;33;20292;-84
2021/12/01 03:40:02;;;;;;;5.85;3.40;;;3.30;81.00;;;-151.14;100.00;62537.16;4041128;33;20381;-83
2021/12/01 03:42:29;;;;;;;4.93;3.13;;;3.30;80.90;;;-151.14;100.00;62537.16;4016175;33;20383;-83
2021/12/01 03:44:56;;;;;;;4.78;2.70;;;3.30;81.00;;;-151.14;100.00;62537.16;4012373;33;20281;-83
2021/12/01 03:47:24;;;;;;;4.43;2.83;;;3.30;81.00;;;-151.14;100.00;62537.16;4025221;33;20333;-84
2021/12/01 03:49:54;;;;;;;5.25;3.05;;;3.30;80.90;;;-151.14;100.00;62537.16;4068720;33;20291;-84
2021/12/01 03:52:29;;;;;;;3.90;2.33;;;3.30;80.90;;;-151.14;100.00;62537.16;4042840;33;20324;-83
2021/12/01 03:54:56;;;;;;;3.58;2.35;;;3.30;81.00;;;-151.14;100.00;62537.16;4046459;33;20281;-84
2021/12/01 03:57:28;;;;;;;3.40;2.00;;;3.30;81.00;;;-151.14;100.00;62537.16;4020115;33;20285;-84
2021/12/01 03:59:55;;;;;;;3.88;2.25;;;3.30;80.90;;;-151.14;100.00;62537.16;4047327;33;20379;-84
2021/12/01 04:02:22;;;;;;;3.88;2.50;;;3.30;80.90;;;-151.14;100.00;62537.16;4046188;33;20284;-83
2021/12/01 04:04:49;;;;;;;4.28;2.25;;;3.30;80.90;;;-151.14;100.00;62537.16;4072085;33;20311;-84
2021/12/01 04:07:16;;;;;;;3.75;2.58;;;3.30;80.90;;;-151.14;100.00;62537.16;4033766;33;20325;-83
2021/12/01 04:09:43;;;;;;;3.47;2.10;;;3.30;80.90;;;-151.14;100.00;62537.16;4001405;33;20014;-83
2021/12/01 04:12:10;;;;;;;3.80;2.00;;;3.30;80.80;;;-151.14;100.00;62537.16;3995168;33;20320;-83
2021/12/01 04:14:44;;;;;;;2.97;1.90;;;3.30;80.80;;;-151.14;100.00;62537.16;4027242;33;20603;-84
2021/12/01 04:17:13;;;;;;;2.95;2.00;;;3.30;80.90;;;-151.14;100.00;62537.16;4017848;33;20285;-84
2021/12/01 04:19:45;;;;;;;3.20;2.13;;;3.30;80.90;;;-151.14;100.00;62537.16;3999565;33;20030;-83
2021/12/01 04:22:17;;;;;;;2.70;1.60;;;3.30;80.90;;;-151.14;100.00;62537.16;4015750;33;20294;-83
2021/12/01 04:24:46;;;;;;;3.58;2.03;;;3.30;80.80;;;-151.14;100.00;62537.16;4014514;33;20100;-82
2021/12/01 04:27:13;;;;;;;3.63;2.20;;;3.30;80.80;;;-151.14;100.00;62537.16;3992240;33;20290;-84
2021/12/01 04:29:43;;;;;;;2.67;1.55;;;3.30;80.80;;;-151.14;100.00;62537.16;3997938;33;20317;-83
2021/12/01 04:32:13;;;;;;;2.55;1.40;;;3.30;80.80;;;-151.14;100.00;62537.16;4000009;33;20538;-83
2021/12/01 04:34:48;;;;;;;3.13;1.55;;;3.30;80.80;;;-151.14;100.00;62537.16;4024269;33;20360;-83
2021/12/01 04:37:16;;;;;;;2.83;1.40;;;3.30;80.80;;;-151.14;100.00;62537.16;4023504;33;20355;-83
2021/12/01 04:39:47;;;;;;;2.50;1.42;;;3.30;80.80;;;-151.14;100.00;62537.16;4017297;33;20281;-84
2021/12/01 04:42:20;;;;;;;2.10;1.40;;;3.30;80.60;;;-151.14;100.00;62537.16;4029526;33;20342;-84
2021/12/01 04:44:47;;;;;;;2.50;1.20;;;3.30;80.80;;;-151.14;100.00;62537.16;3997531;34;20360;-83
2021/12/01 04:47:15;;;;;;;3.15;1.58;;;3.30;80.80;;;-151.14;100.00;62537.16;4043256;34;20348;-84
2021/12/01 04:49:48;;;;;;;2.00;1.30;;;3.30;80.80;;;-151.14;100.00;62537.16;4039619;34;20003;-84
2021/12/01 04:52:15;;;;;;;2.38;1.30;;;3.30;80.80;;;-151.14;100.00;62537.16;4026844;34;20676;-84
2021/12/01 04:54:45;;;;;;;2.03;1.08;;;3.30;80.80;;;-151.14;100.00;62537.16;4020460;34;20622;-84
2021/12/01 04:57:12;;;;;;;3.13;1.10;;;3.30;80.80;;;-151.14;100.00;62537.16;3998778;34;20614;-84
2021/12/01 04:59:42;;;;;;;2.95;1.15;;;3.30;80.70;;;-151.14;100.00;62537.16;4006442;34;20388;-84
2021/12/01 05:02:12;;;;;;;2.72;1.05;;;3.30;80.80;;;-151.14;100.00;62537.16;4026557;34;20494;-84
2021/12/01 05:04:42;;;;;;;1.83;0.90;;;3.30;80.80;;;-151.14;100.00;62537.16;4006377;34;20321;-85
2021/12/01 05:07:14;;;;;;;2.20;1.05;;;3.30;80.80;;;-151.14;100.00;62537.16;4003073;34;20674;-84
2021/12/01 05:09:41;;;;;;;2.08;0.90;;;3.30;80.80;;;-151.14;100.00;62537.16;4008837;34;20270;-85
2021/12/01 05:12:09;;;;;;;2.00;0.98;;;3.30;80.80;;;-151.14;100.00;62537.16;3992290;34;20685;-85
2021/12/01 05:14:37;;;;;;;2.08;1.15;;;3.30;80.70;;;-151.14;100.00;62537.16;4084278;33;20631;-85
2021/12/01 05:17:04;;;;;;;2.00;0.93;;;3.30;80.90;;;-151.14;100.00;62537.16;4094114;33;20306;-85
2021/12/01 05:19:34;;;;;;;1.67;0.85;;;3.30;80.90;;;-151.14;100.00;62537.16;4073184;33;20624;-85
2021/12/01 05:22:07;;;;;;;2.15;0.88;;;3.30;80.70;;;-151.14;100.00;62537.16;4038177;33;20269;-85
2021/12/01 05:24:34;;;;;;;1.92;1.00;;;3.30;80.80;;;-151.14;100.00;62537.16;4077946;33;20565;-85
2021/12/01 05:27:01;;;;;;;1.20;0.70;;;3.30;80.80;;;-151.14;100.00;62537.16;4058827;33;20218;-85
2021/12/01 05:29:31;;;;;;;1.33;0.70;;;3.30;80.70;;;-151.14;100.00;62537.16;4079188;33;20225;-85
2021/12/01 05:31:59;;;;;;;2.10;0.95;;;3.30;80.70;;;-151.14;100.00;62537.16;4074702;33;20695;-85
2021/12/01 05:34:29;;;;;;;2.50;0.85;;;3.30;80.80;;;-151.14;100.00;62537.16;4099542;33;20230;-85
2021/12/01 05:37:00;;;;;;;1.40;0.70;;;3.30;80.80;;;-151.14;100.00;62537.16;4050749;33;20601;-85
2021/12/01 05:39:40;;;;;;;1.33;0.65;;;3.30;80.80;;;-151.14;100.00;62537.16;4049355;33;20558;-85
2021/12/01 05:42:12;;;;;;;1.20;0.80;;;3.30;80.80;;;-151.14;100.00;62537.16;4050916;33;20642;-85
2021/12/01 05:44:43;;;;;;;2.90;0.80;;;3.30;80.80;;;-151.14;100.00;62537.16;4046821;33;20549;-84
2021/12/01 05:47:14;;;;;;;1.77;0.60;;;3.30;80.70;;;-151.14;100.00;62537.16;4112400;33;20030;-83
2021/12/01 05:49:48;;;;;;;2.78;1.10;;;3.30;80.80;;;-151.14;100.00;62537.16;4065965;33;20293;-83
2021/12/01 05:52:36;;;;;;;1.67;0.63;;;3.30;80.80;;;-151.14;100.00;62537.16;4058496;33;20274;-84
2021/12/01 05:55:09;;;;;;;1.88;0.70;;;3.30;80.80;;;-151.14;100.00;62537.16;4023290;33;20326;-85
2021/12/01 05:57:42;;;;;;;3.38;1.48;;;3.30;80.80;;;-151.14;100.00;62537.16;4001174;33;20015;-84
2021/12/01 06:00:12;;;;;;;2.25;0.60;;;3.30;80.80;;;-151.14;100.00;62537.16;4043399;33;20388;-85
2021/12/01 06:02:44;;;;;;;1.20;0.63;;;3.30;80.80;;;-151.14;100.00;62537.16;4007637;33;20003;-85
2021/12/01 06:05:36;;;;;;;1.88;0.85;;;3.30;80.80;;;-151.14;100.00;62537.16;4036608;33;20010;-85
2021/12/01 06:08:07;;;;;;;2.05;0.93;;;3.30;80.90;;;-151.14;100.00;62537.16;4037105;33;20011;-85
2021/12/01 06:10:42;;;;;;;1.60;0.68;;;3.30;80.80;;;-151.14;100.00;62537.16;4060763;33;20320;-85
2021/12/01 06:14:52;;;;;;;1.88;0.85;;;3.30;80.80;;;-151.14;100.00;62537.16;4010407;33;20280;-85
2021/12/01 06:17:35;;;;;;;1.88;0.82;;;3.30;80.90;;;-151.14;100.00;62537.16;4056933;34;20285;-85
2021/12/01 06:20:39;;;;;;;2.38;0.77;;;3.30;80.90;;;-151.14;100.00;62537.16;4019102;34;20019;-85
2021/12/01 06:23:22;;;;;;;2.35;0.80;;;3.30;80.90;;;-151.14;100.00;62537.16;4036673;34;20006;-85
2021/12/01 06:25:57;;;;;;;1.67;0.60;;;3.30;80.90;;;-151.14;100.00;62537.16;4038639;34;20618;-85
2021/12/01 06:28:53;;;;;;;1.73;0.70;;;3.30;80.90;;;-151.14;100.00;62537.16;3980940;34;20024;-86
2021/12/01 06:31:45;;;;;;;3.15;0.90;;;3.30;81.10;;;-151.14;100.00;62537.16;3986729;34;20013;-85
2021/12/01 06:34:17;;;;;;;1.97;1.00;;;3.30;80.90;;;-151.14;100.00;62537.16;4056627;34;20295;-85
2021/12/01 06:36:48;;;;;;;1.58;0.63;;;3.30;80.90;;;-151.14;100.00;62537.16;4025128;34;20280;-85
2021/12/01 06:39:20;;;;;;;2.03;0.85;;;3.30;80.90;;;-151.14;100.00;62537.16;4042685;34;20289;-85
2021/12/01 06:41:56;;;;;;;2.72;0.95;;;3.30;80.90;;;-151.14;100.00;62537.16;4044184;34;20230;-85
2021/12/01 06:44:33;;;;;;;3.30;1.08;;;3.30;80.90;;;-151.14;100.00;62537.16;4032851;34;20299;-86
2021/12/01 06:47:06;;;;;;;2.72;0.93;;;3.30;81.70;;;-151.14;100.00;62537.16;4050194;34;20292;-84
2021/12/01 06:49:34;;;;;;;1.67;0.82;;;3.30;80.90;;;-151.14;100.00;62537.16;4050388;34;19999;-86
2021/12/01 06:52:06;;;;;;;1.85;0.60;;;3.30;81.00;;;-151.14;100.00;62537.16;4045064;34;20365;-85
2021/12/01 06:54:36;;;;;;;2.15;1.00;;;3.30;81.00;;;-151.14;100.00;62537.16;4022791;34;20340;-86
2021/12/01 06:57:08;;;;;;;2.08;0.80;;;3.30;81.10;;;-151.14;100.00;62537.16;4004547;34;20285;-85
2021/12/01 06:59:39;;;;;;;2.80;1.08;;;3.30;81.00;;;-151.14;100.00;62537.16;4003847;34;20295;-86
2021/12/01 07:02:11;;;;;;;3.30;0.95;;;3.30;81.00;;;-151.14;100.00;62537.16;4019904;34;20023;-86
2021/12/01 07:04:45;;;;;;;2.35;0.90;;;3.30;81.10;;;-151.14;100.00;62537.16;3973341;34;20270;-86
2021/12/01 07:07:18;;;;;;;2.25;1.13;;;3.30;81.00;;;-151.14;100.00;62537.16;4030271;34;20274;-85
2021/12/01 07:09:50;;;;;;;2.50;1.27;;;3.30;80.90;;;-151.14;100.00;62537.16;3985914;34;20128;-86
2021/12/01 07:12:24;;;;;;;3.30;1.27;;;3.30;80.90;;;-151.14;100.00;62537.16;4032911;34;20007;-85
2021/12/01 07:14:54;;;;;;;2.60;1.17;;;3.30;81.10;;;-151.14;100.00;62537.16;3995494;34;20291;-86
2021/12/01 07:17:24;;;;;;;2.50;1.00;;;3.30;81.00;;;-151.14;100.00;62537.16;4004647;34;20010;-85
2021/12/01 07:19:50;;;;;;;2.10;1.00;;;3.30;81.00;;;-151.14;100.00;62537.16;4019451;34;20164;-86
2021/12/01 07:22:17;;;;;;;2.70;1.55;;;3.30;81.00;;;-151.14;100.00;62537.16;4044923;34;20003;-85
2021/12/01 07:24:44;;;;;;;2.45;1.02;;;3.30;81.10;;;-151.14;100.00;62537.16;4023955;34;20003;-85
2021/12/01 07:27:10;;;;;;;2.90;1.23;;;3.30;81.00;;;-151.14;100.00;62537.16;4021461;34;20318;-85
2021/12/01 07:29:37;;;;;;;2.72;1.23;;;3.30;81.00;;;-151.14;100.00;62537.16;4051551;34;20326;-85
2021/12/01 07:32:05;;;;;;;2.78;0.90;;;3.30;81.00;;;-151.14;100.00;62537.16;4022474;34;20084;-85
2021/12/01 07:34:31;;;;;;;2.13;1.00;;;3.30;81.10;;;-151.14;100.00;62537.16;4029339;34;20077;-85
2021/12/01 07:36:58;;;;;;;3.33;1.58;;;3.30;81.00;;;-151.14;100.00;62537.16;4001166;34;20356;-85
2021/12/01 07:39:24;;;;;;;2.97;1.20;;;3.30;81.00;;;-151.14;100.00;62537.16;3998566;34;20228;-84
2021/12/01 07:41:51;;;;;;;2.95;1.30;;;3.30;81.10;;;-151.14;100.00;62537.16;4060546;34;20315;-85
2021/12/01 07:44:17;;;;;;;5.03;1.35;;;3.30;81.00;;;-151.14;100.00;62537.16;4010458;34;20335;-85
2021/12/01 07:46:43;;;;;;;3.30;1.38;;;3.30;81.00;;;-151.14;100.00;62537.16;3987040;34;20602;-85
2021/12/01 07:49:10;;;;;;;2.67;1.23;;;3.30;81.00;;;-151.14;100.00;62537.16;4006608;34;20365;-85
2021/12/01 07:51:36;;;;;;;3.47;1.42;;;3.30;81.10;;;-151.14;100.00;62537.16;4048521;34;20321;-85
2021/12/01 07:54:02;;;;;;;3.20;1.70;;;3.30;81.00;;;-151.14;100.00;62537.16;4002433;34;20336;-85
2021/12/01 07:56:29;;;;;;;2.80;1.48;;;3.30;81.00;;;-151.14;100.00;62537.16;3999478;34;20288;-85
2021/12/01 07:58:55;;;;;;;3.58;1.55;;;3.30;81.10;;;-151.14;100.00;62537.16;3989927;34;20675;-85
2021/12/01 08:01:21;;;;;;;3.22;1.27;;;3.30;81.00;;;-151.14;100.00;62537.16;3986407;34;20298;-85
2021/12/01 08:03:48;;;;;;;2.83;1.25;;;3.30;81.00;;;-151.14;100.00;62537.16;3985012;34;20340;-85
2021/12/01 08:06:14;;;;;;;2.47;1.17;;;3.30;81.00;;;-151.14;100.00;62537.16;4037506;34;20416;-86
2021/12/01 08:08:41;;;;;;;1.55;0.90;;;3.30;81.00;;;-151.14;100.00;62537.16;4040462;34;19988;-86
2021/12/01 08:11:07;;;;;;;2.85;1.23;;;3.30;81.00;;;-151.14;100.00;62537.16;4015130;34;20373;-85
2021/12/01 08:13:34;;;;;;;3.10;1.20;;;3.30;81.10;;;-151.14;100.00;62537.16;4017848;34;20271;-85
2021/12/01 08:16:00;;;;;;;2.85;1.38;;;3.30;81.10;;;-151.14;100.00;62537.16;3964957;34;20316;-86
2021/12/01 08:18:27;;;;;;;3.95;1.45;;;3.30;81.10;;;-151.14;100.00;62537.16;3990549;34;20289;-86
2021/12/01 08:20:53;;;;;;;2.25;1.13;;;3.30;81.10;;;-151.14;100.00;62537.16;4015974;34;20313;-86
2021/12/01 08:23:19;;;;;;;2.45;1.52;;;3.30;81.20;;;-151.14;100.00;62537.16;3987400;34;20292;-86
2021/12/01 08:25:46;;;;;;;3.65;1.60;;;3.30;81.10;;;-151.14;100.00;62537.16;3987848;34;20326;-86
2021/12/01 08:28:12;;;;;;;2.78;1.38;;;3.30;81.10;;;-151.14;100.00;62537.16;4002700;34;20299;-86
2021/12/01 08:30:39;;;;;;;2.42;1.20;;;3.30;81.10;;;-151.14;100.00;62537.16;4004386;34;19996;-86
2021/12/01 08:33:05;;;;;;;2.50;1.20;;;3.30;81.10;;;-151.14;100.00;62537.16;4011698;34;20333;-86
2021/12/01 08:35:32;;;;;;;2.38;1.02;;;3.30;81.20;;;-151.14;100.00;62537.16;4032867;34;20298;-86
2021/12/01 08:37:58;;;;;;;2.67;1.73;;;3.30;81.10;;;-151.14;100.00;62537.16;4058654;33;20637;-87
2021/12/01 08:40:27;;;;;;;2.55;1.17;;;3.30;81.10;;;-151.14;100.00;62537.16;4092952;33;20701;-85
2021/12/01 08:42:53;;;;;;;2.17;1.20;;;3.30;81.10;;;-151.14;100.00;62537.16;4041048;34;19995;-86
2021/12/01 08:45:20;;;;;;;2.00;1.10;;;3.30;81.10;;;-151.14;100.00;62537.16;3979122;34;20270;-85
2021/12/01 08:47:48;;;;;;;2.95;1.20;;;3.30;81.10;;;-151.14;100.00;62537.16;4007283;33;20282;-86
2021/12/01 08:50:15;;;;;;;2.55;1.15;;;3.30;81.10;;;-151.14;100.00;62537.16;4078586;33;20013;-86
2021/12/01 08:52:41;;;;;;;2.95;1.17;;;3.30;81.10;;;-151.14;100.00;62537.16;4013858;33;20275;-86
2021/12/01 08:55:08;;;;;;;2.67;1.30;;;3.30;81.10;;;-151.14;100.00;62537.16;4016506;33;20517;-86
2021/12/01 08:57:34;;;;;;;2.72;1.48;;;3.30;81.00;;;-151.14;100.00;62537.16;4009812;33;20332;-86
2021/12/01 09:00:01;;;;;;;1.70;1.20;;;3.30;81.10;;;-151.14;100.00;62537.16;4030083;33;20293;-84
2021/12/01 09:02:27;;;;;;;3.33;1.70;;;3.30;81.10;;;-151.14;100.00;62537.16;4018323;33;20142;-86
2021/12/01 09:04:54;;;;;;;3.38;1.70;;;3.40;80.90;;;-151.14;100.00;62537.16;4054124;33;20292;-86
2021/12/01 09:07:21;;;;;;;2.53;1.30;;;3.40;80.80;;;-151.14;100.00;62537.16;4071440;33;20378;-86
2021/12/01 09:09:47;;;;;;;2.90;1.33;;;3.30;80.60;;;-151.14;100.00;62537.16;4045928;33;20025;-86
2021/12/01 09:12:18;;;;;;;2.30;1.30;;;3.40;80.60;;;-151.14;100.00;62537.16;4047880;33;20385;-86
2021/12/01 09:14:45;;;;;;;3.28;1.65;;;3.40;80.40;;;-151.14;100.00;62537.16;4062320;33;20211;-86
2021/12/01 09:17:12;;;;;;;2.17;1.15;;;3.40;80.40;;;-151.14;100.00;62537.16;4037274;33;20301;-85
2021/12/01 09:19:40;;;;;;;2.60;1.33;;;3.40;80.50;;;-151.14;100.00;62537.16;4099223;33;20006;-85
2021/12/01 09:22:06;;;;;;;3.45;1.75;;;3.40;80.40;;;-151.14;100.00;62537.16;4076052;33;20033;-85
2021/12/01 09:24:33;;;;;;;3.55;1.60;;;3.40;80.40;;;-151.14;100.00;62537.16;4078065;33;20279;-84
2021/12/01 09:27:00;;;;;;;3.17;1.85;;;3.40;80.40;;;-151.14;100.00;62537.16;4028685;33;20276;-85
2021/12/01 09:29:27;;;;;;;2.80;1.33;;;3.40;80.50;;;-151.14;100.00;62537.16;4006733;33;20321;-86
2021/12/01 09:31:56;;;;;;;2.97;1.40;;;3.40;80.50;;;-151.14;100.00;62537.16;4011420;33;19995;-85
2021/12/01 09:34:23;;;;;;;3.17;1.52;;;3.40;80.50;;;-151.14;100.00;62537.16;4031983;33;20682;-86
2021/12/01 09:36:49;;;;;;;2.92;1.50;;;3.40;80.50;;;-151.14;100.00;62537.16;4098282;33;20263;-86
2021/12/01 09:39:15;;;;;;;2.97;1.40;;;3.40;80.50;;;-151.14;100.00;62537.16;4032125;33;20569;-87
2021/12/01 09:41:42;;;;;;;3.53;1.52;;;3.40;80.40;;;-151.14;100.00;62537.16;4092237;33;20601;-86
2021/12/01 09:44:08;;;;;;;2.65;1.30;;;3.40;80.40;;;-151.14;100.00;62537.16;4042152;34;20229;-86
2021/12/01 09:46:35;;;;;;;3.08;1.50;;;3.40;80.40;;;-151.14;100.00;62537.16;4039439;34;20655;-86
2021/12/01 09:49:01;;;;;;;2.97;1.23;;;3.40;80.50;;;-151.14;100.00;62537.16;4086548;34;20008;-86
2021/12/01 09:51:28;;;;;;;2.47;1.73;;;3.40;80.50;;;-151.14;100.00;62537.16;4017062;34;20277;-86
2021/12/01 09:53:55;;;;;;;2.55;1.77;;;3.40;80.50;;;-151.14;100.00;62537.16;4022532;34;20294;-86
2021/12/01 09:56:21;;;;;;;2.50;1.48;;;3.30;80.50;;;-151.14;100.00;62537.16;4041008;34;19980;-86
2021/12/01 09:58:48;;;;;;;1.83;1.13;;;3.40;80.40;;;-151.14;100.00;62537.16;4036628;33;20317;-85
2021/12/01 10:01:18;;;;;;;2.63;1.33;;;3.40;80.40;;;-151.14;100.00;62537.16;4057065;33;20595;-85
2021/12/01 10:03:44;;;;;;;2.78;1.77;;;3.30;80.50;;;-151.14;100.00;62537.16;4102971;33;20314;-85
2021/12/01 10:06:14;;;;;;;2.60;1.35;;;3.40;80.40;;;-151.14;100.00;62537.16;4078384;33;20691;-86
2021/12/01 10:08:53;;;;;;;3.20;1.90;;;3.40;81.30;;;-151.14;100.00;62537.16;4082296;33;20503;-86
2021/12/01 10:11:25;;;;;;;2.42;1.40;;;3.40;80.40;;;-151.14;100.00;62537.16;4083057;33;20044;-87
2021/12/01 10:13:59;;;;;;;3.40;2.05;;;3.40;80.40;;;-151.14;100.00;62537.16;4061790;33;20268;-86
2021/12/01 10:16:32;;;;;;;2.58;1.45;;;3.40;80.40;;;-151.14;100.00;62537.16;4110447;33;20003;-87
2021/12/01 10:19:08;;;;;;;3.92;2.28;;;3.40;80.40;;;-151.14;100.00;62537.16;4079786;33;20001;-86
2021/12/01 10:21:36;;;;;;;3.83;2.20;;;3.40;80.30;;;-151.14;100.00;62537.16;4090374;33;20281;-86
2021/12/01 10:24:11;;;;;;;4.75;2.45;;;3.40;80.30;;;-151.14;100.00;62537.16;4098355;33;20269;-86